Time;durP1;ratioP1;P1;durP2;ratioP2;P2;SDS_P1;SDS_P2;PMS_P1;PMS_P2;Temp;Humidity;BMP_temperature;BMP_pressure;BME280_temperature;BME280_humidity;BME280_pressure;Samples;Min_cycle;Max_cycle;Signal;HPM_P1;HPM_P2
2023/08/21 00:00:48;;;;;;;9.52;3.90;;;17.40;99.90;;;;;;5088940;28;20036;-55
2023/08/21 00:03:13;;;;;;;10.00;4.00;;;17.40;99.90;;;;;;5080222;28;20056;-56
2023/08/21 00:05:39;;;;;;;9.73;4.30;;;17.40;99.90;;;;;;5083065;28;20060;-56
2023/08/21 00:08:05;;;;;;;8.43;3.50;;;17.40;99.90;;;;;;5076265;28;20474;-56
2023/08/21 00:10:31;;;;;;;8.80;4.00;;;17.30;99.90;;;;;;5089255;28;20048;-56
2023/08/21 00:12:57;;;;;;;7.60;4.10;;;17.20;99.90;;;;;;5079652;28;20080;-56
2023/08/21 00:15:23;;;;;;;9.43;4.47;;;17.20;99.90;;;;;;5078745;28;20071;-56
2023/08/21 00:17:48;;;;;;;8.75;4.28;;;17.10;99.90;;;;;;5083537;28;20054;-56
2023/08/21 00:20:14;;;;;;;7.28;3.75;;;17.10;99.90;;;;;;5093435;28;20048;-57
2023/08/21 00:22:40;;;;;;;12.73;4.47;;;17.10;99.90;;;;;;5081655;28;20041;-56
2023/08/21 00:25:05;;;;;;;9.77;4.10;;;17.10;99.90;;;;;;5080715;28;20048;-56
2023/08/21 00:27:31;;;;;;;12.00;4.38;;;17.10;99.90;;;;;;5082156;28;20044;-56
2023/08/21 00:30:00;;;;;;;5.60;3.42;;;17.10;99.90;;;;;;5081310;28;20040;-56
2023/08/21 00:32:26;;;;;;;8.55;3.88;;;17.00;99.90;;;;;;5082973;28;20036;-56
2023/08/21 00:34:52;;;;;;;8.77;4.10;;;17.00;99.90;;;;;;5082363;28;20388;-55
2023/08/21 00:37:17;;;;;;;8.00;3.83;;;17.00;99.90;;;;;;5080859;28;20048;-56
2023/08/21 00:39:43;;;;;;;9.45;3.88;;;17.00;99.90;;;;;;5062854;28;20502;-56
2023/08/21 00:42:08;;;;;;;7.20;3.85;;;16.90;99.90;;;;;;5076407;28;20047;-57
2023/08/21 00:44:34;;;;;;;11.00;4.25;;;16.90;99.90;;;;;;5081515;28;20048;-56
2023/08/21 00:47:00;;;;;;;9.27;3.50;;;16.90;99.90;;;;;;5080582;28;20074;-56
2023/08/21 00:49:27;;;;;;;8.20;3.60;;;16.80;99.90;;;;;;5081995;28;20120;-56
2023/08/21 00:51:53;;;;;;;8.00;3.80;;;16.80;99.90;;;;;;5081490;28;20041;-55
2023/08/21 00:54:20;;;;;;;7.20;3.50;;;16.80;99.90;;;;;;5081798;28;20037;-56
2023/08/21 00:56:45;;;;;;;11.30;3.83;;;16.80;99.90;;;;;;5072903;28;20033;-56
2023/08/21 00:59:12;;;;;;;9.60;3.45;;;16.80;99.90;;;;;;5086787;28;20115;-56
2023/08/21 01:01:38;;;;;;;6.85;3.47;;;16.80;99.90;;;;;;5080261;28;20049;-57
2023/08/21 01:04:04;;;;;;;7.25;3.75;;;16.70;99.90;;;;;;5067151;28;20118;-56
2023/08/21 01:06:30;;;;;;;8.63;3.63;;;16.70;99.90;;;;;;5092565;28;20047;-56
2023/08/21 01:09:15;;;;;;;6.57;3.13;;;16.60;99.90;;;;;;5081145;28;20032;-56
2023/08/21 01:11:57;;;;;;;7.25;3.38;;;16.60;99.90;;;;;;5100215;28;20040;-57
2023/08/21 01:14:41;;;;;;;6.63;3.28;;;16.60;99.90;;;;;;5092316;28;20075;-56
2023/08/21 01:17:09;;;;;;;5.38;3.38;;;16.60;99.90;;;;;;5080160;28;20055;-56
2023/08/21 01:19:41;;;;;;;6.45;3.15;;;16.50;99.90;;;;;;5078134;28;20040;-56
2023/08/21 01:22:07;;;;;;;7.68;3.30;;;16.50;99.90;;;;;;5063448;28;20502;-56
2023/08/21 01:24:33;;;;;;;5.05;3.35;;;16.40;99.90;;;;;;5071021;28;20051;-56
2023/08/21 01:26:59;;;;;;;5.82;4.05;;;16.40;99.90;;;;;;5081059;28;20068;-56
2023/08/21 01:29:25;;;;;;;4.82;3.25;;;16.40;99.90;;;;;;5080202;28;20043;-56
2023/08/21 01:31:59;;;;;;;6.82;3.80;;;16.30;99.90;;;;;;5082251;28;20237;-55
2023/08/21 01:34:28;;;;;;;5.40;3.50;;;16.60;99.90;;;;;;5080114;28;20078;-55
2023/08/21 01:36:54;;;;;;;8.45;3.72;;;16.30;99.90;;;;;;5080270;28;20041;-56
2023/08/21 01:39:20;;;;;;;6.30;3.60;;;16.30;99.90;;;;;;5062658;28;20051;-56
2023/08/21 01:41:46;;;;;;;6.30;3.72;;;16.30;99.90;;;;;;5059915;28;20090;-56
2023/08/21 01:44:11;;;;;;;7.20;3.60;;;16.30;99.90;;;;;;5061120;28;20047;-54
2023/08/21 01:46:37;;;;;;;5.40;3.25;;;16.30;99.90;;;;;;5059586;28;20044;-56
2023/08/21 01:49:03;;;;;;;5.22;3.40;;;16.20;99.90;;;;;;5065720;28;20548;-57
2023/08/21 01:51:28;;;;;;;8.68;4.28;;;16.20;99.90;;;;;;5073340;28;20037;-56
2023/08/21 01:53:54;;;;;;;8.25;3.75;;;16.20;99.90;;;;;;5072099;28;20204;-56
2023/08/21 01:56:20;;;;;;;7.18;3.97;;;16.10;99.90;;;;;;5094307;28;20059;-56
2023/08/21 01:58:45;;;;;;;6.93;3.63;;;16.10;99.90;;;;;;5091424;28;20041;-56
2023/08/21 02:01:11;;;;;;;5.20;3.50;;;16.00;99.90;;;;;;5064797;28;20057;-56
2023/08/21 02:03:37;;;;;;;5.85;3.70;;;16.00;99.90;;;;;;5079332;28;20036;-56
2023/08/21 02:06:02;;;;;;;7.18;3.92;;;16.00;99.90;;;;;;5096486;28;20032;-56
2023/08/21 02:08:32;;;;;;;6.95;3.80;;;16.00;99.90;;;;;;5096718;28;20056;-56
2023/08/21 02:10:58;;;;;;;8.10;4.15;;;16.00;99.90;;;;;;5072920;28;20032;-56
2023/08/21 02:13:24;;;;;;;5.57;3.97;;;16.00;99.90;;;;;;5078617;28;20400;-55
2023/08/21 02:15:50;;;;;;;6.72;3.65;;;16.00;99.90;;;;;;5094342;28;20067;-55
2023/08/21 02:18:16;;;;;;;10.05;4.03;;;16.00;99.90;;;;;;5083774;28;20110;-56
2023/08/21 02:20:42;;;;;;;7.15;4.15;;;15.90;99.90;;;;;;5082036;28;20052;-57
2023/08/21 02:23:08;;;;;;;8.05;4.78;;;15.80;99.90;;;;;;5080838;28;20178;-56
2023/08/21 02:25:33;;;;;;;7.60;5.00;;;15.80;99.90;;;;;;5086639;28;20040;-56
2023/08/21 02:27:59;;;;;;;10.07;3.90;;;15.70;99.90;;;;;;5073794;28;20055;-56
2023/08/21 02:30:27;;;;;;;7.28;4.30;;;15.70;99.90;;;;;;5079489;28;20048;-55
2023/08/21 02:32:53;;;;;;;8.15;4.63;;;15.70;99.90;;;;;;5079154;28;20041;-57
2023/08/21 02:35:19;;;;;;;7.45;5.53;;;15.70;99.90;;;;;;5090046;28;20090;-56
2023/08/21 02:37:45;;;;;;;9.45;5.57;;;15.70;99.90;;;;;;5085847;28;20575;-56
2023/08/21 02:40:11;;;;;;;8.88;5.18;;;15.60;99.90;;;;;;5080859;28;20041;-55
2023/08/21 02:42:37;;;;;;;7.82;5.20;;;15.60;99.90;;;;;;5078214;28;20068;-56
2023/08/21 02:45:07;;;;;;;7.88;5.72;;;15.60;99.90;;;;;;5068468;28;20052;-56
2023/08/21 02:47:38;;;;;;;8.77;5.60;;;15.50;99.90;;;;;;5079703;28;20048;-56
2023/08/21 02:50:05;;;;;;;10.55;6.45;;;15.50;99.90;;;;;;5079734;28;20040;-56
2023/08/21 02:52:31;;;;;;;9.55;6.55;;;15.50;99.90;;;;;;5080396;28;20040;-55
2023/08/21 02:54:57;;;;;;;9.25;6.18;;;15.50;99.90;;;;;;5095365;28;20507;-56
2023/08/21 02:57:24;;;;;;;9.32;6.20;;;15.50;99.90;;;;;;5091295;28;20037;-56
2023/08/21 02:59:50;;;;;;;9.65;6.05;;;15.50;99.90;;;;;;5079612;28;20051;-56
2023/08/21 03:02:16;;;;;;;10.25;5.80;;;15.50;99.90;;;;;;5066404;28;20037;-55
2023/08/21 03:04:42;;;;;;;9.45;5.60;;;15.50;99.90;;;;;;5092957;28;20138;-55
2023/08/21 03:07:07;;;;;;;11.20;5.70;;;15.40;99.90;;;;;;5099783;28;20071;-56
2023/08/21 03:09:33;;;;;;;5.82;5.00;;;15.50;99.90;;;;;;5089596;28;20064;-56
2023/08/21 03:11:59;;;;;;;12.38;5.53;;;15.40;99.90;;;;;;5078367;28;20044;-56
2023/08/21 03:14:26;;;;;;;7.15;5.25;;;15.40;99.90;;;;;;5073893;28;20072;-56
2023/08/21 03:16:51;;;;;;;7.65;5.60;;;15.40;99.90;;;;;;5061561;28;20052;-56
2023/08/21 03:19:17;;;;;;;7.63;5.00;;;15.40;99.90;;;;;;5079902;28;20077;-56
2023/08/21 03:21:43;;;;;;;9.50;5.43;;;15.40;99.90;;;;;;5087142;28;20028;-56
2023/08/21 03:24:08;;;;;;;12.65;6.20;;;15.40;99.90;;;;;;5090367;28;20041;-56
2023/08/21 03:26:34;;;;;;;11.07;6.22;;;15.30;99.90;;;;;;5079774;28;20044;-56
2023/08/21 03:29:00;;;;;;;7.57;5.40;;;15.30;99.90;;;;;;5078941;28;20454;-57
2023/08/21 03:31:25;;;;;;;8.10;5.63;;;15.30;99.90;;;;;;5080089;28;20048;-56
2023/08/21 03:33:51;;;;;;;9.60;6.50;;;15.30;99.90;;;;;;5083961;28;20036;-56
2023/08/21 03:36:17;;;;;;;12.10;6.03;;;15.30;99.90;;;;;;5073880;28;20040;-57
2023/08/21 03:38:43;;;;;;;8.70;5.70;;;15.20;99.90;;;;;;5078919;28;20044;-56
2023/08/21 03:41:09;;;;;;;9.40;5.65;;;15.20;99.90;;;;;;5084147;28;20090;-56
2023/08/21 03:43:34;;;;;;;8.95;5.90;;;15.10;99.90;;;;;;5086504;28;20032;-56
2023/08/21 03:46:00;;;;;;;8.43;5.50;;;15.20;99.90;;;;;;5077330;28;20049;-56
2023/08/21 03:48:26;;;;;;;8.85;5.15;;;15.10;99.90;;;;;;5079963;28;20059;-56
2023/08/21 03:50:51;;;;;;;12.35;5.97;;;15.10;99.90;;;;;;5078274;28;20036;-56
2023/08/21 03:53:17;;;;;;;9.95;5.47;;;15.10;99.90;;;;;;5064022;28;20064;-56
2023/08/21 03:55:43;;;;;;;12.60;6.00;;;15.10;99.90;;;;;;5058478;28;20051;-56
2023/08/21 03:58:09;;;;;;;7.38;5.53;;;15.10;99.90;;;;;;5076561;28;20045;-56
2023/08/21 04:00:34;;;;;;;20.42;6.13;;;15.00;99.90;;;;;;5079566;28;20044;-56
2023/08/21 04:03:00;;;;;;;8.50;5.85;;;15.00;99.90;;;;;;5082363;28;20461;-56
2023/08/21 04:05:25;;;;;;;12.35;5.93;;;15.00;99.90;;;;;;5083652;28;20036;-56
2023/08/21 04:07:51;;;;;;;6.88;5.47;;;15.10;99.90;;;;;;5081609;28;20032;-56
2023/08/21 04:10:17;;;;;;;11.38;6.40;;;15.00;99.90;;;;;;5082678;28;20071;-56
2023/08/21 04:12:42;;;;;;;7.60;5.32;;;15.00;99.90;;;;;;5077386;28;20044;-56
2023/08/21 04:15:09;;;;;;;9.15;6.18;;;15.00;99.90;;;;;;5099605;28;20070;-56
2023/08/21 04:17:35;;;;;;;6.65;5.60;;;14.90;99.90;;;;;;5099995;28;20118;-55
2023/08/21 04:20:00;;;;;;;11.02;6.25;;;14.90;99.90;;;;;;5082934;28;20527;-56
2023/08/21 04:22:26;;;;;;;13.35;6.22;;;14.90;99.90;;;;;;5081870;28;20057;-56
2023/08/21 04:24:52;;;;;;;12.50;5.78;;;14.90;99.90;;;;;;5081925;28;20037;-55
2023/08/21 04:27:17;;;;;;;11.75;6.40;;;14.90;99.90;;;;;;5082237;28;20063;-56
2023/08/21 04:29:43;;;;;;;7.93;5.70;;;14.90;99.90;;;;;;5099594;28;20073;-56
2023/08/21 04:32:08;;;;;;;8.02;5.63;;;14.90;99.90;;;;;;5098522;28;20041;-56
2023/08/21 04:34:34;;;;;;;8.80;5.40;;;14.90;99.90;;;;;;5081879;28;20127;-56
2023/08/21 04:37:00;;;;;;;9.00;5.10;;;14.80;99.90;;;;;;5083156;28;20070;-56
2023/08/21 04:39:26;;;;;;;7.38;4.95;;;14.90;99.90;;;;;;5099153;28;20040;-56
2023/08/21 04:41:51;;;;;;;6.90;5.07;;;14.80;99.90;;;;;;5097469;28;20036;-56
2023/08/21 04:44:17;;;;;;;6.00;4.82;;;14.90;99.90;;;;;;5071592;28;20100;-56
2023/08/21 04:46:47;;;;;;;10.18;5.35;;;14.90;99.90;;;;;;5079213;28;20076;-56
2023/08/21 04:49:13;;;;;;;8.32;5.28;;;14.80;99.90;;;;;;5083041;28;20065;-56
2023/08/21 04:51:39;;;;;;;9.20;4.95;;;14.80;99.90;;;;;;5081126;28;20048;-56
2023/08/21 04:54:04;;;;;;;7.22;4.80;;;14.80;99.90;;;;;;5082184;28;20109;-56
2023/08/21 04:56:30;;;;;;;7.00;4.70;;;14.80;99.90;;;;;;5080347;28;20049;-56
2023/08/21 04:58:55;;;;;;;6.78;4.82;;;14.80;99.90;;;;;;5070256;28;20064;-56
2023/08/21 05:01:21;;;;;;;8.38;4.68;;;14.80;99.90;;;;;;5076971;28;20051;-56
2023/08/21 05:03:47;;;;;;;7.10;4.68;;;14.80;99.90;;;;;;5080574;28;20068;-56
2023/08/21 05:06:12;;;;;;;7.93;4.38;;;14.80;99.90;;;;;;5081915;28;20032;-56
2023/08/21 05:08:38;;;;;;;6.03;4.60;;;14.80;99.90;;;;;;5080699;28;20040;-57
2023/08/21 05:11:04;;;;;;;8.18;4.75;;;14.80;99.90;;;;;;5081594;28;20044;-56
2023/08/21 05:13:29;;;;;;;7.28;5.10;;;14.80;99.90;;;;;;5082393;28;20119;-56
2023/08/21 05:15:57;;;;;;;7.50;5.15;;;14.80;99.90;;;;;;5079955;28;20075;-56
2023/08/21 05:18:24;;;;;;;7.30;4.53;;;14.80;99.90;;;;;;5087454;28;20515;-56
2023/08/21 05:20:50;;;;;;;7.35;4.50;;;14.80;99.90;;;;;;5075118;28;20037;-56
2023/08/21 05:23:16;;;;;;;5.40;3.95;;;14.80;99.90;;;;;;5074326;28;20045;-56
2023/08/21 05:25:46;;;;;;;7.75;4.18;;;14.80;99.90;;;;;;5066834;28;20055;-56
2023/08/21 05:28:12;;;;;;;4.70;4.00;;;14.90;99.90;;;;;;5098285;28;20043;-56
2023/08/21 05:30:38;;;;;;;5.57;4.35;;;14.80;99.90;;;;;;5101293;28;20032;-55
2023/08/21 05:33:04;;;;;;;6.82;4.43;;;14.90;99.90;;;;;;5097085;28;20046;-56
2023/08/21 05:35:36;;;;;;;7.32;4.35;;;14.90;99.90;;;;;;5079093;28;20040;-56
2023/08/21 05:38:05;;;;;;;6.72;4.47;;;15.00;99.90;;;;;;5083511;28;20039;-56
2023/08/21 05:40:31;;;;;;;9.85;4.57;;;15.00;99.90;;;;;;5083324;28;20049;-56
2023/08/21 05:42:57;;;;;;;6.35;4.22;;;15.00;99.90;;;;;;5063776;28;20608;-57
2023/08/21 05:45:23;;;;;;;5.55;4.50;;;15.10;99.90;;;;;;5084726;28;20128;-56
2023/08/21 05:47:49;;;;;;;7.47;4.30;;;15.10;99.90;;;;;;5079819;28;20049;-56
2023/08/21 05:50:15;;;;;;;8.80;4.90;;;15.10;99.90;;;;;;5100344;28;20040;-56
2023/08/21 05:52:40;;;;;;;10.23;5.00;;;15.20;99.90;;;;;;5076809;28;20045;-56
2023/08/21 05:55:06;;;;;;;9.07;5.20;;;15.30;99.90;;;;;;5079840;28;20120;-56
2023/08/21 05:57:32;;;;;;;9.68;4.65;;;15.30;99.90;;;;;;5068656;28;20096;-56
2023/08/21 05:59:58;;;;;;;7.35;4.50;;;15.40;99.90;;;;;;5097131;28;20119;-56
2023/08/21 06:02:23;;;;;;;8.25;4.50;;;15.50;99.90;;;;;;5084737;28;20396;-55
2023/08/21 06:04:49;;;;;;;8.00;4.88;;;15.50;99.90;;;;;;5079830;28;20370;-57
2023/08/21 06:07:15;;;;;;;7.85;4.78;;;15.60;99.90;;;;;;5080646;28;20032;-56
2023/08/21 06:09:40;;;;;;;11.65;5.30;;;15.60;99.90;;;;;;5080730;28;20064;-56
2023/08/21 06:12:06;;;;;;;7.85;5.03;;;15.70;99.90;;;;;;5085206;28;20036;-58
2023/08/21 06:14:32;;;;;;;6.45;4.65;;;15.70;99.90;;;;;;5086643;28;20457;-56
2023/08/21 06:17:00;;;;;;;6.32;4.45;;;15.80;99.90;;;;;;5068135;28;20040;-60
2023/08/21 06:19:25;;;;;;;12.40;5.38;;;15.80;99.90;;;;;;5080531;28;20131;-57
2023/08/21 06:21:51;;;;;;;11.95;5.10;;;15.90;99.90;;;;;;5079916;28;20048;-57
2023/08/21 06:24:17;;;;;;;12.25;5.25;;;15.50;99.90;;;;;;5078990;28;20051;-57
2023/08/21 06:26:42;;;;;;;9.05;5.47;;;16.00;99.90;;;;;;5069544;28;20037;-56
2023/08/21 06:29:08;;;;;;;11.05;5.00;;;16.10;99.90;;;;;;5078526;28;20115;-56
2023/08/21 06:31:34;;;;;;;8.18;5.25;;;16.20;99.90;;;;;;5092011;28;20044;-55
2023/08/21 06:33:59;;;;;;;11.15;5.80;;;16.30;99.90;;;;;;5079049;28;20043;-56
2023/08/21 06:36:25;;;;;;;12.68;5.80;;;16.40;99.90;;;;;;5080192;28;20134;-56
2023/08/21 06:38:51;;;;;;;13.05;5.38;;;16.40;99.90;;;;;;5077082;28;20044;-56
2023/08/21 06:41:16;;;;;;;15.07;5.68;;;16.50;99.90;;;;;;5079553;28;20048;-56
2023/08/21 06:43:42;;;;;;;14.85;5.75;;;16.60;99.90;;;;;;5080177;28;20107;-57
2023/08/21 06:46:08;;;;;;;20.40;6.47;;;16.70;99.90;;;;;;5087834;28;20048;-57
2023/08/21 06:48:38;;;;;;;11.90;5.75;;;16.80;99.90;;;;;;5089807;28;20052;-57
2023/08/21 06:51:03;;;;;;;12.55;5.43;;;17.10;99.90;;;;;;5074124;28;20060;-57
2023/08/21 06:53:29;;;;;;;9.63;3.75;;;17.60;99.90;;;;;;5071375;28;20040;-57
2023/08/21 06:55:55;;;;;;;8.00;4.10;;;18.00;99.90;;;;;;5081012;28;20048;-56
2023/08/21 06:58:21;;;;;;;8.77;3.45;;;18.50;99.90;;;;;;5080239;28;20090;-56
2023/08/21 07:00:46;;;;;;;9.07;4.15;;;18.90;99.90;;;;;;5063235;28;20062;-56
2023/08/21 07:03:12;;;;;;;8.23;3.47;;;19.30;99.90;;;;;;5070854;28;20076;-57
2023/08/21 07:05:38;;;;;;;9.10;3.30;;;19.60;99.90;;;;;;5066600;28;20040;-57
2023/08/21 07:08:04;;;;;;;11.45;2.95;;;19.90;99.90;;;;;;5071431;28;20041;-56
2023/08/21 07:10:30;;;;;;;7.38;2.97;;;20.20;99.90;;;;;;5092906;28;20515;-56
2023/08/21 07:12:56;;;;;;;8.07;3.10;;;20.40;99.90;;;;;;5079338;28;20040;-56
2023/08/21 07:15:22;;;;;;;9.52;2.85;;;20.50;99.90;;;;;;5078375;28;20078;-57
2023/08/21 07:17:47;;;;;;;8.70;2.83;;;20.60;99.90;;;;;;5069035;28;20044;-56
2023/08/21 07:20:13;;;;;;;8.73;2.92;;;20.70;99.90;;;;;;5079239;28;20068;-56
2023/08/21 07:22:39;;;;;;;8.93;3.25;;;20.90;99.90;;;;;;5077070;28;20040;-57
2023/08/21 07:25:05;;;;;;;7.68;2.67;;;21.00;99.90;;;;;;5088091;28;20128;-56
2023/08/21 07:27:34;;;;;;;6.32;2.80;;;21.30;99.90;;;;;;5078557;28;20033;-57
2023/08/21 07:29:59;;;;;;;8.52;2.80;;;21.50;99.90;;;;;;5082070;28;20045;-58
2023/08/21 07:32:25;;;;;;;8.82;3.45;;;21.70;99.90;;;;;;5080417;28;20044;-58
2023/08/21 07:34:54;;;;;;;5.38;2.60;;;21.90;99.90;;;;;;5072331;28;20091;-57
2023/08/21 07:37:20;;;;;;;8.20;2.88;;;22.10;99.90;;;;;;5077171;28;20048;-57
2023/08/21 07:39:45;;;;;;;9.00;2.50;;;22.30;99.90;;;;;;5079003;28;20043;-56
2023/08/21 07:42:12;;;;;;;8.50;2.30;;;22.40;99.90;;;;;;5074158;28;20062;-56
2023/08/21 07:44:39;;;;;;;7.38;2.47;;;22.50;99.90;;;;;;5075740;28;20040;-56
2023/08/21 07:47:05;;;;;;;6.45;2.55;;;22.60;99.90;;;;;;5080841;28;20059;-56
2023/08/21 07:49:35;;;;;;;5.75;2.40;;;22.60;99.90;;;;;;5064135;28;20037;-56
2023/08/21 07:52:02;;;;;;;8.35;2.58;;;22.70;99.90;;;;;;5058581;28;20037;-56
2023/08/21 07:54:28;;;;;;;8.70;2.63;;;22.70;99.90;;;;;;5063562;28;20051;-57
2023/08/21 07:56:53;;;;;;;9.00;2.70;;;22.70;99.90;;;;;;5067377;28;20037;-56
2023/08/21 07:59:19;;;;;;;7.30;2.50;;;22.70;99.90;;;;;;5067319;28;20066;-56
2023/08/21 08:01:45;;;;;;;8.55;2.30;;;22.70;99.90;;;;;;5062172;28;20511;-56
2023/08/21 08:04:11;;;;;;;8.60;2.92;;;22.60;99.90;;;;;;5065082;28;20283;-56
2023/08/21 08:06:36;;;;;;;8.90;2.72;;;22.50;99.90;;;;;;5067134;28;20492;-56
2023/08/21 08:09:05;;;;;;;6.78;2.63;;;22.50;99.90;;;;;;5062826;28;20175;-56
2023/08/21 08:11:31;;;;;;;7.70;2.67;;;22.30;99.90;;;;;;5060668;28;20080;-57
2023/08/21 08:13:56;;;;;;;6.25;2.55;;;22.30;99.90;;;;;;5062666;28;20037;-57
2023/08/21 08:16:22;;;;;;;7.18;2.80;;;22.20;99.90;;;;;;5060904;28;20045;-56
2023/08/21 08:18:48;;;;;;;7.57;2.30;;;22.10;99.90;;;;;;5069891;28;20048;-56
2023/08/21 08:21:14;;;;;;;8.82;2.55;;;21.90;99.90;;;;;;5069451;28;20443;-56
2023/08/21 08:23:40;;;;;;;7.22;2.10;;;21.90;99.90;;;;;;5072702;28;20071;-56
2023/08/21 08:26:05;;;;;;;5.10;1.70;;;21.80;99.90;;;;;;5069436;28;20033;-56
2023/08/21 08:28:31;;;;;;;7.53;2.00;;;21.70;99.90;;;;;;5064123;28;20465;-57
2023/08/21 08:30:57;;;;;;;5.97;1.88;;;21.70;99.90;;;;;;5066278;28;20119;-56
2023/08/21 08:33:23;;;;;;;7.93;2.20;;;21.60;99.90;;;;;;5062088;28;20047;-57
2023/08/21 08:35:49;;;;;;;7.93;2.63;;;21.60;99.90;;;;;;5066319;28;20084;-56
2023/08/21 08:38:15;;;;;;;9.07;2.50;;;21.60;99.90;;;;;;5063252;28;20151;-57
2023/08/21 08:40:45;;;;;;;6.45;2.45;;;21.60;99.90;;;;;;5064676;28;20124;-56
2023/08/21 08:43:14;;;;;;;7.38;2.72;;;21.60;99.90;;;;;;5070836;28;20416;-56
2023/08/21 08:45:41;;;;;;;9.82;3.15;;;21.60;99.90;;;;;;5060949;28;20041;-56
2023/08/21 08:48:07;;;;;;;6.05;2.70;;;21.60;99.90;;;;;;5071296;28;20124;-56
2023/08/21 08:50:34;;;;;;;9.60;3.20;;;21.60;99.90;;;;;;5071480;28;20045;-56
2023/08/21 08:53:01;;;;;;;8.10;3.17;;;21.60;99.90;;;;;;5061913;28;20432;-57
2023/08/21 08:55:27;;;;;;;6.60;2.70;;;21.60;99.90;;;;;;5074979;28;20036;-58
2023/08/21 08:57:53;;;;;;;8.25;3.08;;;21.60;99.90;;;;;;5077436;28;20051;-57
2023/08/21 09:00:20;;;;;;;7.10;2.88;;;21.60;99.90;;;;;;5079060;28;20044;-56
2023/08/21 09:02:46;;;;;;;5.72;2.65;;;21.70;99.90;;;;;;5064973;28;20041;-56
2023/08/21 09:05:12;;;;;;;8.07;2.63;;;21.60;99.90;;;;;;5071723;28;20045;-56
2023/08/21 09:07:39;;;;;;;5.22;2.05;;;21.60;99.90;;;;;;5065280;28;20102;-57
2023/08/21 09:10:12;;;;;;;8.77;2.20;;;21.70;99.90;;;;;;5065755;28;20048;-56
2023/08/21 09:12:39;;;;;;;5.68;2.35;;;21.70;99.90;;;;;;5066072;28;20047;-57
2023/08/21 09:15:08;;;;;;;7.82;2.67;;;21.70;99.90;;;;;;5067019;28;20036;-57
2023/08/21 09:17:34;;;;;;;6.32;2.40;;;21.70;99.90;;;;;;5060904;28;20382;-55
2023/08/21 09:20:10;;;;;;;8.05;2.67;;;21.80;99.90;;;;;;5063908;28;20504;-57
2023/08/21 09:22:35;;;;;;;6.57;2.67;;;21.80;99.90;;;;;;5060954;28;20041;-56
2023/08/21 09:25:10;;;;;;;6.25;2.17;;;21.80;99.90;;;;;;5059530;28;20052;-56
2023/08/21 09:27:38;;;;;;;7.50;1.70;;;21.90;99.90;;;;;;5069962;28;20052;-56
2023/08/21 09:30:05;;;;;;;7.90;2.00;;;21.90;99.90;;;;;;5069367;28;20032;-56
2023/08/21 09:32:31;;;;;;;6.18;1.60;;;21.90;99.90;;;;;;5066153;28;20036;-56
2023/08/21 09:34:57;;;;;;;9.88;2.15;;;22.00;99.90;;;;;;5073409;28;20058;-56
2023/08/21 09:37:31;;;;;;;6.28;2.60;;;22.00;99.90;;;;;;5064438;28;20051;-57
2023/08/21 09:40:06;;;;;;;5.85;1.77;;;22.00;99.90;;;;;;5075407;28;20040;-56
2023/08/21 09:42:32;;;;;;;6.57;2.22;;;22.10;99.90;;;;;;5060744;28;20175;-56
2023/08/21 09:44:58;;;;;;;8.45;2.53;;;22.10;99.90;;;;;;5076619;28;20049;-56
2023/08/21 09:47:26;;;;;;;8.02;2.90;;;22.10;99.90;;;;;;5062987;28;20048;-56
2023/08/21 09:49:52;;;;;;;9.73;2.95;;;22.20;99.90;;;;;;5062480;28;20057;-56
2023/08/21 09:52:17;;;;;;;9.05;3.08;;;22.20;99.90;;;;;;5069325;28;20287;-57
2023/08/21 09:54:43;;;;;;;8.35;2.90;;;22.20;99.90;;;;;;5068714;28;20079;-56
2023/08/21 09:57:10;;;;;;;7.25;2.80;;;22.30;99.90;;;;;;5061143;28;20062;-57
2023/08/21 09:59:38;;;;;;;7.38;2.85;;;22.30;99.90;;;;;;5066614;28;20056;-57
2023/08/21 10:02:06;;;;;;;7.40;2.63;;;22.30;99.90;;;;;;5060898;28;20079;-56
2023/08/21 10:04:34;;;;;;;11.45;3.08;;;22.30;99.90;;;;;;5065319;28;20407;-56
2023/08/21 10:07:03;;;;;;;8.80;2.30;;;22.30;99.90;;;;;;5069335;28;20631;-57
2023/08/21 10:09:29;;;;;;;10.23;1.98;;;22.30;99.90;;;;;;5063257;28;20048;-57
2023/08/21 10:11:55;;;;;;;7.45;1.95;;;22.30;99.90;;;;;;5063441;28;20081;-56
2023/08/21 10:14:24;;;;;;;6.22;1.90;;;22.40;99.90;;;;;;5074932;28;20427;-56
2023/08/21 10:16:52;;;;;;;10.32;2.10;;;22.40;99.90;;;;;;5060062;28;20277;-57
2023/08/21 10:19:19;;;;;;;9.73;2.30;;;22.40;99.90;;;;;;5066583;28;20055;-57
2023/08/21 10:21:51;;;;;;;6.72;2.10;;;22.40;99.90;;;;;;5059035;28;20203;-56
2023/08/21 10:24:37;;;;;;;4.28;2.17;;;22.50;99.90;;;;;;5062504;28;20253;-57
2023/08/21 10:27:03;;;;;;;10.93;2.35;;;22.50;99.90;;;;;;5071277;28;20044;-56
2023/08/21 10:29:31;;;;;;;5.70;1.60;;;22.50;99.90;;;;;;5070783;28;20063;-57
2023/08/21 10:32:04;;;;;;;6.68;1.85;;;22.60;99.90;;;;;;5066167;28;20045;-57
2023/08/21 10:34:40;;;;;;;9.40;2.42;;;22.60;99.90;;;;;;5066317;28;20037;-57
2023/08/21 10:37:07;;;;;;;;;;;22.70;99.90;;;;;;5068638;28;20041;-56
2023/08/21 10:39:35;;;;;;;5.57;1.55;;;22.70;99.90;;;;;;5062338;28;19921;-56
2023/08/21 10:42:05;;;;;;;6.60;1.50;;;22.70;99.90;;;;;;5063096;28;20036;-57
2023/08/21 10:44:34;;;;;;;6.72;1.88;;;22.70;99.90;;;;;;5060051;28;20048;-56
2023/08/21 10:47:23;;;;;;;7.47;1.92;;;22.70;99.90;;;;;;5067019;28;20077;-56
2023/08/21 10:49:55;;;;;;;11.10;2.40;;;22.70;99.90;;;;;;5066650;28;20413;-56
2023/08/21 10:52:23;;;;;;;6.40;1.67;;;22.70;99.90;;;;;;5069904;28;20053;-56
2023/08/21 10:54:52;;;;;;;5.93;1.80;;;22.80;99.90;;;;;;5058475;28;20044;-57
2023/08/21 10:57:18;;;;;;;5.05;1.50;;;22.80;99.90;;;;;;5061536;28;20097;-56
2023/08/21 11:00:20;;;;;;;5.93;1.63;;;22.80;99.90;;;;;;5062240;28;20841;-56
2023/08/21 11:02:47;;;;;;;8.85;1.80;;;22.90;99.90;;;;;;5068934;28;20059;-56
2023/08/21 11:05:14;;;;;;;9.77;1.92;;;22.90;99.90;;;;;;5072923;28;20060;-56
2023/08/21 11:07:47;;;;;;;7.68;1.52;;;23.00;99.90;;;;;;5060926;28;20030;-57
2023/08/21 11:10:16;;;;;;;6.55;1.63;;;23.00;99.90;;;;;;5077916;28;20051;-57
2023/08/21 11:12:56;;;;;;;7.38;1.60;;;23.00;99.90;;;;;;5069668;28;20083;-57
2023/08/21 11:15:22;;;;;;;4.78;1.58;;;23.10;99.90;;;;;;5069730;28;20047;-56
2023/08/21 11:17:59;;;;;;;6.00;1.58;;;23.10;99.90;;;;;;5064760;28;20064;-56
2023/08/21 11:20:35;;;;;;;6.20;1.50;;;23.20;99.90;;;;;;5070996;28;20040;-57
2023/08/21 11:23:07;;;;;;;5.38;1.55;;;23.30;99.90;;;;;;5068755;28;20050;-56
2023/08/21 11:25:34;;;;;;;8.60;1.70;;;23.40;99.90;;;;;;5079043;28;20044;-56
2023/08/21 11:28:02;;;;;;;9.05;2.03;;;23.50;99.90;;;;;;5068377;28;20096;-56
2023/08/21 11:30:28;;;;;;;6.80;2.08;;;23.50;99.90;;;;;;5070340;28;20041;-56
2023/08/21 11:33:11;;;;;;;9.02;1.73;;;23.70;99.90;;;;;;5063087;28;20052;-56
2023/08/21 11:35:38;;;;;;;8.13;1.65;;;23.80;99.90;;;;;;5064335;28;20119;-56
2023/08/21 11:38:04;;;;;;;5.57;1.75;;;23.90;99.90;;;;;;5062504;28;20041;-57
2023/08/21 11:40:30;;;;;;;7.63;2.00;;;23.90;99.90;;;;;;5075049;28;20040;-56
2023/08/21 11:43:03;;;;;;;7.85;2.00;;;24.00;99.90;;;;;;5069220;28;20068;-56
2023/08/21 11:45:29;;;;;;;9.27;1.77;;;24.10;99.90;;;;;;5067005;28;20095;-56
2023/08/21 11:47:58;;;;;;;7.90;1.83;;;24.10;99.90;;;;;;5073741;28;20080;-56
2023/08/21 11:50:25;;;;;;;6.28;1.60;;;24.20;99.90;;;;;;5073152;28;20127;-57
2023/08/21 11:52:55;;;;;;;6.15;1.90;;;24.20;99.90;;;;;;5063380;28;20033;-57
2023/08/21 11:55:21;;;;;;;5.05;1.60;;;24.30;99.90;;;;;;5062182;28;20045;-56
2023/08/21 11:57:50;;;;;;;5.32;1.63;;;24.40;99.90;;;;;;5063519;28;20067;-56
2023/08/21 12:00:22;;;;;;;5.18;1.60;;;24.40;99.90;;;;;;5071047;28;20100;-56
2023/08/21 12:02:56;;;;;;;5.97;1.67;;;24.50;99.90;;;;;;5062152;28;20131;-56
2023/08/21 12:05:22;;;;;;;8.15;1.65;;;24.50;99.90;;;;;;5062821;28;20088;-56
2023/08/21 12:07:48;;;;;;;7.80;1.90;;;24.50;99.90;;;;;;5061416;28;20041;-56
2023/08/21 12:10:13;;;;;;;4.97;1.60;;;24.40;99.90;;;;;;5068830;28;20049;-57
2023/08/21 12:12:39;;;;;;;6.72;1.40;;;24.40;99.90;;;;;;5059214;28;20041;-56
2023/08/21 12:15:05;;;;;;;8.40;1.65;;;24.30;99.90;;;;;;5062849;28;20037;-57
2023/08/21 12:17:31;;;;;;;6.53;1.60;;;24.30;99.90;;;;;;5064742;28;20064;-56
2023/08/21 12:19:57;;;;;;;5.68;1.42;;;24.20;99.90;;;;;;5062345;28;20474;-56
2023/08/21 12:22:22;;;;;;;4.85;1.50;;;24.20;99.90;;;;;;5061786;28;20048;-56
2023/08/21 12:24:48;;;;;;;4.07;1.50;;;24.20;99.90;;;;;;5061641;28;20520;-56
2023/08/21 12:27:14;;;;;;;4.80;1.40;;;24.20;99.90;;;;;;5063364;28;20041;-56
2023/08/21 12:29:39;;;;;;;7.63;1.70;;;24.10;99.90;;;;;;5076755;28;20103;-55
2023/08/21 12:32:05;;;;;;;7.70;2.20;;;24.10;99.90;;;;;;5062677;28;20101;-56
2023/08/21 12:34:31;;;;;;;4.07;1.48;;;24.10;99.90;;;;;;5060848;28;20044;-57
2023/08/21 12:36:57;;;;;;;5.63;1.73;;;24.30;99.90;;;;;;5063317;28;20048;-56
2023/08/21 12:39:22;;;;;;;6.47;1.80;;;24.30;99.90;;;;;;5075825;28;20037;-56
2023/08/21 12:41:48;;;;;;;9.30;1.70;;;24.40;99.90;;;;;;5063765;28;20116;-56
2023/08/21 12:44:14;;;;;;;6.10;1.65;;;24.50;99.90;;;;;;5072917;28;20041;-56